createdAt,value
2023-03-22T00:02:48.754Z,80.08
2023-03-22T00:07:50.289Z,80.16
2023-03-22T00:12:50.530Z,82.02
2023-03-22T00:17:50.537Z,84.62
2023-03-22T00:22:49.361Z,84.29
2023-03-22T00:27:48.197Z,81.98
2023-03-22T00:32:48.593Z,79.99
2023-03-22T00:37:47.558Z,80.60
2023-03-22T00:42:46.345Z,79.61
2023-03-22T00:47:45.163Z,78.48
2023-03-22T00:52:45.512Z,79.92
2023-03-22T00:57:44.548Z,78.60
2023-03-22T01:02:44.055Z,78.28
2023-03-22T01:07:50.943Z,78.78
2023-03-22T01:12:49.793Z,78.43
2023-03-22T01:17:49.193Z,77.58
2023-03-22T01:22:49.512Z,79.92
2023-03-22T01:27:48.322Z,80.18
2023-03-22T01:32:47.078Z,80.25
2023-03-22T01:37:46.761Z,80.55
2023-03-22T01:42:47.625Z,81.02
2023-03-22T01:47:53.815Z,80.97
2023-03-22T01:52:54.432Z,82.33
2023-03-22T01:57:58.811Z,81.87
2023-03-22T02:03:13.881Z,82.01
2023-03-22T02:08:19.421Z,82.33
2023-03-22T02:13:42.435Z,83.29
2023-03-22T02:19:12.413Z,83.63
2023-03-22T02:24:45.394Z,81.76
2023-03-22T02:29:50.167Z,82.15
2023-03-22T02:35:22.514Z,83.50
2023-03-22T02:40:31.313Z,83.22
2023-03-22T02:45:35.625Z,83.79
2023-03-22T02:50:42.104Z,82.57
2023-03-22T02:55:47.376Z,81.93
2023-03-22T03:00:49.522Z,81.81
2023-03-22T03:05:53.985Z,80.99
2023-03-22T03:10:55.040Z,80.13
2023-03-22T03:15:57.440Z,80.01
2023-03-22T03:21:04.017Z,79.74
2023-03-22T03:26:10.614Z,79.60
2023-03-22T03:31:21.479Z,82.48
2023-03-22T03:36:23.638Z,82.35
2023-03-22T03:41:29.059Z,83.43
2023-03-22T03:46:29.242Z,84.67
2023-03-22T03:51:29.116Z,86.79
2023-03-22T03:56:29.313Z,87.92
2023-03-22T04:01:29.300Z,86.38
2023-03-22T04:06:41.020Z,86.08
2023-03-22T04:11:49.730Z,86.92
2023-03-22T04:16:49.371Z,86.99
2023-03-22T04:21:53.330Z,86.31
2023-03-22T04:26:53.869Z,87.52
2023-03-22T04:31:57.747Z,87.67
2023-03-22T04:37:08.128Z,88.83
2023-03-22T04:42:19.508Z,87.58
2023-03-22T04:47:20.420Z,86.23
2023-03-22T04:52:19.434Z,86.52
2023-03-22T04:57:26.050Z,86.23
2023-03-22T05:02:25.098Z,87.21
2023-03-22T05:07:24.990Z,85.69
2023-03-22T05:12:29.351Z,87.74
2023-03-22T05:17:32.041Z,90.30
2023-03-22T05:22:34.850Z,87.03
2023-03-22T05:27:39.124Z,87.45
2023-03-22T05:33:02.363Z,85.78
2023-03-22T05:38:06.170Z,85.68
2023-03-22T05:43:09.643Z,84.20
2023-03-22T05:48:12.995Z,83.20
2023-03-22T05:53:12.740Z,83.05
2023-03-22T05:58:39.764Z,82.54
2023-03-22T06:03:41.102Z,82.20
2023-03-22T06:08:52.526Z,82.06
2023-03-22T06:13:53.094Z,81.05
2023-03-22T06:18:55.194Z,81.48
2023-03-22T06:23:54.084Z,81.71
2023-03-22T06:28:55.344Z,81.53
2023-03-22T06:33:55.894Z,81.98
2023-03-22T06:39:13.456Z,82.04
2023-03-22T06:44:17.354Z,82.28
2023-03-22T06:49:22.820Z,81.35
2023-03-22T06:54:24.389Z,91.41
2023-03-22T06:59:24.725Z,83.97
2023-03-22T07:04:24.296Z,81.80
2023-03-22T07:09:24.184Z,83.12
2023-03-22T07:14:27.489Z,84.94
2023-03-22T07:19:34.589Z,83.49
2023-03-22T07:24:47.288Z,83.30
2023-03-22T07:29:55.369Z,82.79
2023-03-22T07:34:54.786Z,83.77
2023-03-22T07:39:53.613Z,85.05
2023-03-22T07:44:54.198Z,85.81
2023-03-22T07:50:14.130Z,86.18
2023-03-22T07:55:15.863Z,86.60
2023-03-22T08:00:17.402Z,86.49
2023-03-22T08:05:25.893Z,85.96
2023-03-22T08:10:32.828Z,86.17
2023-03-22T08:15:34.154Z,84.46
2023-03-22T08:20:34.192Z,85.66
2023-03-22T08:25:38.331Z,85.22
2023-03-22T08:30:42.509Z,84.65
2023-03-22T08:35:42.576Z,84.27
2023-03-22T08:40:41.574Z,84.58
2023-03-22T08:45:40.607Z,83.49
2023-03-22T08:50:48.529Z,84.37
2023-03-22T08:55:58.164Z,84.23
2023-03-22T09:01:13.655Z,84.40
2023-03-22T09:06:32.890Z,82.53
2023-03-22T09:11:32.623Z,83.25
2023-03-22T09:16:31.737Z,84.05
2023-03-22T09:21:34.061Z,85.75
2023-03-22T09:26:41.608Z,87.14
2023-03-22T09:31:40.943Z,83.94
2023-03-22T09:36:49.334Z,84.06
2023-03-22T09:41:55.137Z,83.96
2023-03-22T09:46:57.382Z,83.21
2023-03-22T09:51:58.147Z,83.09
2023-03-22T09:57:02.134Z,82.21
2023-03-22T10:02:04.837Z,83.84
2023-03-22T10:07:12.898Z,83.51
2023-03-22T10:12:21.581Z,83.87
2023-03-22T10:17:27.172Z,86.12
2023-03-22T10:22:32.495Z,88.31
2023-03-22T10:27:32.761Z,89.39
2023-03-22T10:32:51.052Z,90.11
2023-03-22T10:37:59.444Z,92.18
2023-03-22T10:43:01.875Z,94.34
2023-03-22T10:48:03.965Z,93.26
2023-03-22T10:53:07.063Z,94.26
2023-03-22T10:58:13.050Z,94.01
2023-03-22T11:03:28.663Z,94.21
2023-03-22T11:08:28.926Z,93.38
2023-03-22T11:13:27.900Z,92.50
2023-03-22T11:18:32.334Z,93.69
2023-03-22T11:23:35.007Z,95.97
2023-03-22T11:28:37.483Z,93.76
2023-03-22T11:33:37.770Z,92.04
2023-03-22T11:38:40.252Z,91.22
2023-03-22T11:43:42.451Z,90.61
2023-03-22T11:48:43.804Z,88.71
2023-03-22T11:53:46.084Z,87.50
2023-03-22T11:59:00.825Z,88.70
2023-03-22T12:04:04.461Z,88.66
2023-03-22T12:09:11.637Z,87.78
2023-03-22T12:14:19.669Z,87.99
2023-03-22T12:19:28.470Z,85.46
2023-03-22T12:24:31.610Z,86.77
2023-03-22T12:29:30.805Z,86.88
2023-03-22T12:34:38.298Z,85.23
2023-03-22T12:39:42.302Z,84.62
2023-03-22T12:44:55.512Z,85.44
2023-03-22T12:50:06.800Z,84.09
2023-03-22T12:55:10.814Z,83.89
2023-03-22T13:00:15.829Z,83.33
2023-03-22T13:05:17.520Z,85.27
2023-03-22T13:10:59.962Z,85.79
2023-03-22T13:16:02.672Z,83.85
2023-03-22T13:21:14.235Z,83.04
2023-03-22T13:26:17.510Z,82.04
2023-03-22T13:31:32.881Z,81.82
2023-03-22T13:36:33.285Z,81.03
2023-03-22T13:41:36.137Z,80.49
2023-03-22T13:46:50.723Z,78.92
2023-03-22T13:51:49.990Z,78.87
2023-03-22T13:56:56.385Z,78.87
2023-03-22T14:02:01.173Z,77.15
2023-03-22T14:07:01.338Z,76.91
2023-03-22T14:12:09.671Z,76.79
2023-03-22T14:17:18.406Z,77.30
